sensor_id;sensor_type;location;lat;lon;timestamp;P1;durP1;ratioP1;P2;durP2;ratioP2
39918;SDS011;25589;51.552;13.424;2024-03-08T00:00:13;24.15;;;13.40;;
39918;SDS011;25589;51.552;13.424;2024-03-08T00:02:43;22.42;;;13.10;;
39918;SDS011;25589;51.552;13.424;2024-03-08T00:05:12;23.67;;;14.40;;
39918;SDS011;25589;51.552;13.424;2024-03-08T00:07:38;23.80;;;14.05;;
39918;SDS011;25589;51.552;13.424;2024-03-08T00:10:08;20.45;;;12.70;;
39918;SDS011;25589;51.552;13.424;2024-03-08T00:12:39;25.90;;;13.75;;
39918;SDS011;25589;51.552;13.424;2024-03-08T00:15:09;26.58;;;14.32;;
39918;SDS011;25589;51.552;13.424;2024-03-08T00:17:41;22.95;;;13.88;;
39918;SDS011;25589;51.552;13.424;2024-03-08T00:20:07;29.00;;;13.50;;
39918;SDS011;25589;51.552;13.424;2024-03-08T00:22:34;24.20;;;13.93;;
39918;SDS011;25589;51.552;13.424;2024-03-08T00:24:59;30.85;;;13.95;;
39918;SDS011;25589;51.552;13.424;2024-03-08T00:27:25;26.95;;;14.02;;
39918;SDS011;25589;51.552;13.424;2024-03-08T00:29:51;20.63;;;13.18;;
39918;SDS011;25589;51.552;13.424;2024-03-08T00:32:16;25.88;;;14.13;;
39918;SDS011;25589;51.552;13.424;2024-03-08T00:34:42;28.40;;;14.68;;
39918;SDS011;25589;51.552;13.424;2024-03-08T00:37:08;23.38;;;13.35;;
39918;SDS011;25589;51.552;13.424;2024-03-08T00:39:34;21.23;;;13.02;;
39918;SDS011;25589;51.552;13.424;2024-03-08T00:41:59;22.52;;;13.40;;
39918;SDS011;25589;51.552;13.424;2024-03-08T00:44:25;26.23;;;14.45;;
39918;SDS011;25589;51.552;13.424;2024-03-08T00:46:50;26.35;;;14.32;;
39918;SDS011;25589;51.552;13.424;2024-03-08T00:49:16;25.20;;;14.30;;
39918;SDS011;25589;51.552;13.424;2024-03-08T00:51:42;26.95;;;13.75;;
39918;SDS011;25589;51.552;13.424;2024-03-08T00:54:08;23.23;;;13.48;;
39918;SDS011;25589;51.552;13.424;2024-03-08T00:56:34;24.60;;;13.57;;
39918;SDS011;25589;51.552;13.424;2024-03-08T00:59:00;23.38;;;14.40;;
39918;SDS011;25589;51.552;13.424;2024-03-08T01:01:27;23.20;;;13.30;;
39918;SDS011;25589;51.552;13.424;2024-03-08T01:03:53;24.15;;;14.50;;
39918;SDS011;25589;51.552;13.424;2024-03-08T01:06:19;22.55;;;14.23;;
39918;SDS011;25589;51.552;13.424;2024-03-08T01:08:44;27.23;;;15.32;;
39918;SDS011;25589;51.552;13.424;2024-03-08T01:11:12;25.20;;;14.68;;
39918;SDS011;25589;51.552;13.424;2024-03-08T01:13:39;24.55;;;13.93;;
39918;SDS011;25589;51.552;13.424;2024-03-08T01:16:04;24.63;;;13.57;;
39918;SDS011;25589;51.552;13.424;2024-03-08T01:18:30;25.80;;;14.02;;
39918;SDS011;25589;51.552;13.424;2024-03-08T01:20:57;27.20;;;15.18;;
39918;SDS011;25589;51.552;13.424;2024-03-08T01:23:22;21.73;;;13.90;;
39918;SDS011;25589;51.552;13.424;2024-03-08T01:25:48;26.02;;;14.13;;
39918;SDS011;25589;51.552;13.424;2024-03-08T01:28:17;23.50;;;14.27;;
39918;SDS011;25589;51.552;13.424;2024-03-08T01:30:42;26.90;;;15.32;;
39918;SDS011;25589;51.552;13.424;2024-03-08T01:33:08;25.33;;;15.05;;
39918;SDS011;25589;51.552;13.424;2024-03-08T01:35:33;26.35;;;16.05;;
39918;SDS011;25589;51.552;13.424;2024-03-08T01:37:59;27.77;;;15.68;;
39918;SDS011;25589;51.552;13.424;2024-03-08T01:40:25;27.10;;;14.98;;
39918;SDS011;25589;51.552;13.424;2024-03-08T01:42:50;28.42;;;16.02;;
39918;SDS011;25589;51.552;13.424;2024-03-08T01:45:16;32.08;;;15.35;;
39918;SDS011;25589;51.552;13.424;2024-03-08T01:47:41;31.42;;;17.00;;
39918;SDS011;25589;51.552;13.424;2024-03-08T01:50:07;28.63;;;16.92;;
39918;SDS011;25589;51.552;13.424;2024-03-08T01:52:33;32.92;;;17.30;;
39918;SDS011;25589;51.552;13.424;2024-03-08T01:55:01;26.02;;;15.60;;
39918;SDS011;25589;51.552;13.424;2024-03-08T01:57:28;28.30;;;16.58;;
39918;SDS011;25589;51.552;13.424;2024-03-08T01:59:56;28.25;;;16.02;;
39918;SDS011;25589;51.552;13.424;2024-03-08T02:02:22;29.73;;;17.38;;
39918;SDS011;25589;51.552;13.424;2024-03-08T02:04:48;29.65;;;17.45;;
39918;SDS011;25589;51.552;13.424;2024-03-08T02:07:18;29.75;;;15.93;;
39918;SDS011;25589;51.552;13.424;2024-03-08T02:09:43;29.63;;;17.67;;
39918;SDS011;25589;51.552;13.424;2024-03-08T02:12:09;28.58;;;16.98;;
39918;SDS011;25589;51.552;13.424;2024-03-08T02:14:37;30.63;;;17.60;;
39918;SDS011;25589;51.552;13.424;2024-03-08T02:17:04;25.83;;;16.85;;
39918;SDS011;25589;51.552;13.424;2024-03-08T02:19:30;28.65;;;16.60;;
39918;SDS011;25589;51.552;13.424;2024-03-08T02:21:57;29.92;;;17.88;;
39918;SDS011;25589;51.552;13.424;2024-03-08T02:24:22;35.80;;;18.17;;
39918;SDS011;25589;51.552;13.424;2024-03-08T02:26:49;32.28;;;18.00;;
39918;SDS011;25589;51.552;13.424;2024-03-08T02:29:14;30.60;;;18.25;;
39918;SDS011;25589;51.552;13.424;2024-03-08T02:31:40;30.05;;;19.10;;
39918;SDS011;25589;51.552;13.424;2024-03-08T02:34:06;30.55;;;18.27;;
39918;SDS011;25589;51.552;13.424;2024-03-08T02:36:31;29.60;;;17.70;;
39918;SDS011;25589;51.552;13.424;2024-03-08T02:39:01;34.10;;;19.83;;
39918;SDS011;25589;51.552;13.424;2024-03-08T02:41:27;31.83;;;18.42;;
39918;SDS011;25589;51.552;13.424;2024-03-08T02:43:53;37.85;;;19.75;;
39918;SDS011;25589;51.552;13.424;2024-03-08T02:46:20;34.75;;;18.17;;
39918;SDS011;25589;51.552;13.424;2024-03-08T02:48:45;28.75;;;17.38;;
39918;SDS011;25589;51.552;13.424;2024-03-08T02:51:12;33.70;;;18.95;;
39918;SDS011;25589;51.552;13.424;2024-03-08T02:53:38;29.75;;;17.33;;
39918;SDS011;25589;51.552;13.424;2024-03-08T02:56:04;29.48;;;18.88;;
39918;SDS011;25589;51.552;13.424;2024-03-08T02:58:33;30.95;;;18.55;;
39918;SDS011;25589;51.552;13.424;2024-03-08T03:00:59;34.22;;;18.67;;
39918;SDS011;25589;51.552;13.424;2024-03-08T03:03:24;32.15;;;19.00;;
39918;SDS011;25589;51.552;13.424;2024-03-08T03:05:51;36.53;;;20.38;;
39918;SDS011;25589;51.552;13.424;2024-03-08T03:08:20;35.00;;;19.70;;
39918;SDS011;25589;51.552;13.424;2024-03-08T03:10:46;33.30;;;20.48;;
39918;SDS011;25589;51.552;13.424;2024-03-08T03:13:12;31.83;;;19.83;;
39918;SDS011;25589;51.552;13.424;2024-03-08T03:15:39;31.90;;;20.00;;
39918;SDS011;25589;51.552;13.424;2024-03-08T03:18:07;36.58;;;19.92;;
39918;SDS011;25589;51.552;13.424;2024-03-08T03:20:33;36.63;;;20.80;;
39918;SDS011;25589;51.552;13.424;2024-03-08T03:23:02;36.00;;;20.42;;
39918;SDS011;25589;51.552;13.424;2024-03-08T03:25:28;34.90;;;20.52;;
39918;SDS011;25589;51.552;13.424;2024-03-08T03:27:58;38.70;;;22.48;;
39918;SDS011;25589;51.552;13.424;2024-03-08T03:30:24;39.58;;;19.85;;
39918;SDS011;25589;51.552;13.424;2024-03-08T03:32:58;35.63;;;21.38;;
39918;SDS011;25589;51.552;13.424;2024-03-08T03:35:31;36.08;;;20.33;;
39918;SDS011;25589;51.552;13.424;2024-03-08T03:37:58;37.38;;;20.52;;
39918;SDS011;25589;51.552;13.424;2024-03-08T03:40:32;38.88;;;21.50;;
39918;SDS011;25589;51.552;13.424;2024-03-08T03:42:58;39.00;;;21.27;;
39918;SDS011;25589;51.552;13.424;2024-03-08T03:45:24;33.83;;;20.88;;
39918;SDS011;25589;51.552;13.424;2024-03-08T03:47:50;39.42;;;20.90;;
39918;SDS011;25589;51.552;13.424;2024-03-08T03:50:17;38.38;;;21.20;;
39918;SDS011;25589;51.552;13.424;2024-03-08T03:52:44;41.13;;;21.55;;
39918;SDS011;25589;51.552;13.424;2024-03-08T03:55:10;35.55;;;20.17;;
39918;SDS011;25589;51.552;13.424;2024-03-08T03:57:37;38.90;;;21.38;;
39918;SDS011;25589;51.552;13.424;2024-03-08T04:00:03;37.88;;;22.25;;
39918;SDS011;25589;51.552;13.424;2024-03-08T04:02:38;40.10;;;22.27;;
39918;SDS011;25589;51.552;13.424;2024-03-08T04:05:05;40.03;;;22.10;;
39918;SDS011;25589;51.552;13.424;2024-03-08T04:07:31;40.28;;;22.08;;
39918;SDS011;25589;51.552;13.424;2024-03-08T04:09:57;36.40;;;21.63;;
39918;SDS011;25589;51.552;13.424;2024-03-08T04:12:22;44.10;;;22.55;;
39918;SDS011;25589;51.552;13.424;2024-03-08T04:14:48;38.97;;;22.00;;
39918;SDS011;25589;51.552;13.424;2024-03-08T04:17:14;41.47;;;22.73;;
39918;SDS011;25589;51.552;13.424;2024-03-08T04:19:39;43.85;;;22.90;;
39918;SDS011;25589;51.552;13.424;2024-03-08T04:22:08;39.83;;;22.05;;
39918;SDS011;25589;51.552;13.424;2024-03-08T04:24:33;39.50;;;22.40;;
39918;SDS011;25589;51.552;13.424;2024-03-08T04:26:59;43.00;;;23.08;;
39918;SDS011;25589;51.552;13.424;2024-03-08T04:29:25;41.53;;;22.35;;
39918;SDS011;25589;51.552;13.424;2024-03-08T04:31:51;44.65;;;24.13;;
39918;SDS011;25589;51.552;13.424;2024-03-08T04:34:20;40.38;;;22.67;;
39918;SDS011;25589;51.552;13.424;2024-03-08T04:36:47;41.63;;;22.95;;
39918;SDS011;25589;51.552;13.424;2024-03-08T04:39:13;43.88;;;23.55;;
39918;SDS011;25589;51.552;13.424;2024-03-08T04:41:39;40.08;;;23.38;;
39918;SDS011;25589;51.552;13.424;2024-03-08T04:44:05;41.17;;;21.92;;
39918;SDS011;25589;51.552;13.424;2024-03-08T04:46:31;41.20;;;23.67;;
39918;SDS011;25589;51.552;13.424;2024-03-08T04:48:56;40.60;;;22.88;;
39918;SDS011;25589;51.552;13.424;2024-03-08T04:51:23;38.20;;;22.55;;
39918;SDS011;25589;51.552;13.424;2024-03-08T04:53:50;41.00;;;22.77;;
39918;SDS011;25589;51.552;13.424;2024-03-08T04:56:15;40.47;;;22.90;;
39918;SDS011;25589;51.552;13.424;2024-03-08T04:58:41;40.25;;;21.88;;
39918;SDS011;25589;51.552;13.424;2024-03-08T05:01:06;40.83;;;22.02;;
39918;SDS011;25589;51.552;13.424;2024-03-08T05:03:35;46.63;;;24.10;;
39918;SDS011;25589;51.552;13.424;2024-03-08T05:06:00;39.45;;;22.48;;
39918;SDS011;25589;51.552;13.424;2024-03-08T05:08:26;40.63;;;22.45;;
39918;SDS011;25589;51.552;13.424;2024-03-08T05:10:51;41.28;;;23.98;;
39918;SDS011;25589;51.552;13.424;2024-03-08T05:13:17;43.13;;;23.63;;
39918;SDS011;25589;51.552;13.424;2024-03-08T05:15:43;45.55;;;24.67;;
39918;SDS011;25589;51.552;13.424;2024-03-08T05:18:12;43.58;;;24.73;;
39918;SDS011;25589;51.552;13.424;2024-03-08T05:20:40;46.83;;;24.38;;
39918;SDS011;25589;51.552;13.424;2024-03-08T05:23:06;47.45;;;24.70;;
39918;SDS011;25589;51.552;13.424;2024-03-08T05:25:33;44.45;;;23.83;;
39918;SDS011;25589;51.552;13.424;2024-03-08T05:27:58;40.38;;;22.73;;
39918;SDS011;25589;51.552;13.424;2024-03-08T05:30:24;44.13;;;25.05;;
39918;SDS011;25589;51.552;13.424;2024-03-08T05:32:50;45.35;;;24.05;;
39918;SDS011;25589;51.552;13.424;2024-03-08T05:35:15;44.30;;;24.55;;
39918;SDS011;25589;51.552;13.424;2024-03-08T05:37:41;42.83;;;24.67;;
39918;SDS011;25589;51.552;13.424;2024-03-08T05:40:10;41.45;;;24.17;;
39918;SDS011;25589;51.552;13.424;2024-03-08T05:42:35;45.20;;;25.13;;
39918;SDS011;25589;51.552;13.424;2024-03-08T05:45:01;42.70;;;23.67;;
39918;SDS011;25589;51.552;13.424;2024-03-08T05:47:28;45.60;;;23.45;;
39918;SDS011;25589;51.552;13.424;2024-03-08T05:49:54;41.88;;;23.95;;
39918;SDS011;25589;51.552;13.424;2024-03-08T05:52:19;42.10;;;24.73;;
39918;SDS011;25589;51.552;13.424;2024-03-08T05:54:45;42.28;;;24.05;;
39918;SDS011;25589;51.552;13.424;2024-03-08T05:57:12;47.97;;;24.60;;
39918;SDS011;25589;51.552;13.424;2024-03-08T05:59:39;41.45;;;24.40;;
39918;SDS011;25589;51.552;13.424;2024-03-08T06:02:05;41.95;;;23.67;;
39918;SDS011;25589;51.552;13.424;2024-03-08T06:04:31;44.38;;;24.30;;
39918;SDS011;25589;51.552;13.424;2024-03-08T06:06:57;46.08;;;24.88;;
39918;SDS011;25589;51.552;13.424;2024-03-08T06:09:23;45.92;;;23.75;;
39918;SDS011;25589;51.552;13.424;2024-03-08T06:11:50;41.97;;;24.55;;
39918;SDS011;25589;51.552;13.424;2024-03-08T06:14:23;44.88;;;25.48;;
39918;SDS011;25589;51.552;13.424;2024-03-08T06:16:51;44.95;;;25.17;;
39918;SDS011;25589;51.552;13.424;2024-03-08T06:19:18;42.72;;;25.02;;
39918;SDS011;25589;51.552;13.424;2024-03-08T06:21:44;46.60;;;25.10;;
39918;SDS011;25589;51.552;13.424;2024-03-08T06:24:10;47.33;;;24.83;;
39918;SDS011;25589;51.552;13.424;2024-03-08T06:26:36;49.55;;;25.58;;
39918;SDS011;25589;51.552;13.424;2024-03-08T06:29:02;48.65;;;25.35;;
39918;SDS011;25589;51.552;13.424;2024-03-08T06:31:31;43.45;;;24.98;;
39918;SDS011;25589;51.552;13.424;2024-03-08T06:33:58;49.10;;;25.90;;
39918;SDS011;25589;51.552;13.424;2024-03-08T06:36:23;47.50;;;25.85;;
39918;SDS011;25589;51.552;13.424;2024-03-08T06:38:49;47.30;;;25.30;;
39918;SDS011;25589;51.552;13.424;2024-03-08T06:41:16;43.10;;;24.25;;
39918;SDS011;25589;51.552;13.424;2024-03-08T06:43:42;44.72;;;23.38;;
39918;SDS011;25589;51.552;13.424;2024-03-08T06:46:09;45.63;;;25.27;;
39918;SDS011;25589;51.552;13.424;2024-03-08T06:48:35;45.13;;;24.52;;
39918;SDS011;25589;51.552;13.424;2024-03-08T06:51:03;48.53;;;26.00;;
39918;SDS011;25589;51.552;13.424;2024-03-08T06:53:30;46.80;;;25.52;;
39918;SDS011;25589;51.552;13.424;2024-03-08T06:55:56;48.03;;;24.95;;
39918;SDS011;25589;51.552;13.424;2024-03-08T06:58:25;48.15;;;24.95;;
39918;SDS011;25589;51.552;13.424;2024-03-08T07:00:51;44.83;;;25.83;;
39918;SDS011;25589;51.552;13.424;2024-03-08T07:03:17;45.22;;;24.60;;
39918;SDS011;25589;51.552;13.424;2024-03-08T07:05:43;44.25;;;25.45;;
39918;SDS011;25589;51.552;13.424;2024-03-08T07:08:09;41.40;;;24.75;;
39918;SDS011;25589;51.552;13.424;2024-03-08T07:10:34;48.53;;;26.50;;
39918;SDS011;25589;51.552;13.424;2024-03-08T07:13:02;44.42;;;25.30;;
39918;SDS011;25589;51.552;13.424;2024-03-08T07:15:28;47.05;;;26.17;;
39918;SDS011;25589;51.552;13.424;2024-03-08T07:17:54;48.08;;;25.77;;
39918;SDS011;25589;51.552;13.424;2024-03-08T07:20:20;45.92;;;25.60;;
39918;SDS011;25589;51.552;13.424;2024-03-08T07:22:46;45.03;;;25.05;;
39918;SDS011;25589;51.552;13.424;2024-03-08T07:25:13;48.50;;;25.83;;
39918;SDS011;25589;51.552;13.424;2024-03-08T07:27:54;48.35;;;25.50;;
39918;SDS011;25589;51.552;13.424;2024-03-08T07:30:21;42.15;;;24.55;;
39918;SDS011;25589;51.552;13.424;2024-03-08T07:33:06;48.75;;;26.55;;
39918;SDS011;25589;51.552;13.424;2024-03-08T07:35:32;49.53;;;25.88;;
39918;SDS011;25589;51.552;13.424;2024-03-08T07:38:02;48.70;;;25.73;;
39918;SDS011;25589;51.552;13.424;2024-03-08T07:40:36;50.30;;;26.38;;
39918;SDS011;25589;51.552;13.424;2024-03-08T07:43:09;45.78;;;25.77;;
39918;SDS011;25589;51.552;13.424;2024-03-08T07:45:35;46.97;;;25.77;;
39918;SDS011;25589;51.552;13.424;2024-03-08T07:48:05;44.35;;;25.50;;
39918;SDS011;25589;51.552;13.424;2024-03-08T07:50:38;45.28;;;24.73;;
39918;SDS011;25589;51.552;13.424;2024-03-08T07:53:04;49.85;;;26.20;;
39918;SDS011;25589;51.552;13.424;2024-03-08T07:55:33;49.60;;;26.58;;
39918;SDS011;25589;51.552;13.424;2024-03-08T07:58:00;48.00;;;26.55;;
39918;SDS011;25589;51.552;13.424;2024-03-08T08:00:26;46.15;;;26.40;;
39918;SDS011;25589;51.552;13.424;2024-03-08T08:02:53;48.00;;;28.05;;
39918;SDS011;25589;51.552;13.424;2024-03-08T08:05:19;51.00;;;26.92;;
39918;SDS011;25589;51.552;13.424;2024-03-08T08:07:45;48.47;;;27.10;;
39918;SDS011;25589;51.552;13.424;2024-03-08T08:10:15;48.13;;;26.80;;
39918;SDS011;25589;51.552;13.424;2024-03-08T08:12:46;54.72;;;27.55;;
39918;SDS011;25589;51.552;13.424;2024-03-08T08:15:15;47.85;;;25.80;;
39918;SDS011;25589;51.552;13.424;2024-03-08T08:17:41;50.17;;;25.90;;
39918;SDS011;25589;51.552;13.424;2024-03-08T08:20:08;49.50;;;26.98;;
39918;SDS011;25589;51.552;13.424;2024-03-08T08:22:35;48.83;;;26.60;;
39918;SDS011;25589;51.552;13.424;2024-03-08T08:25:01;54.85;;;27.65;;
39918;SDS011;25589;51.552;13.424;2024-03-08T08:27:26;52.08;;;26.98;;
39918;SDS011;25589;51.552;13.424;2024-03-08T08:29:52;51.05;;;27.10;;
39918;SDS011;25589;51.552;13.424;2024-03-08T08:32:18;50.75;;;27.33;;
39918;SDS011;25589;51.552;13.424;2024-03-08T08:34:47;49.65;;;25.90;;
39918;SDS011;25589;51.552;13.424;2024-03-08T08:37:13;52.47;;;27.23;;
39918;SDS011;25589;51.552;13.424;2024-03-08T08:39:38;46.42;;;24.95;;
39918;SDS011;25589;51.552;13.424;2024-03-08T08:42:04;47.30;;;27.83;;
39918;SDS011;25589;51.552;13.424;2024-03-08T08:44:30;47.42;;;26.73;;
39918;SDS011;25589;51.552;13.424;2024-03-08T08:46:56;50.17;;;25.90;;
39918;SDS011;25589;51.552;13.424;2024-03-08T08:49:23;46.78;;;25.42;;
39918;SDS011;25589;51.552;13.424;2024-03-08T08:51:49;48.80;;;27.77;;
39918;SDS011;25589;51.552;13.424;2024-03-08T08:54:15;45.25;;;24.50;;
39918;SDS011;25589;51.552;13.424;2024-03-08T08:56:42;42.03;;;24.70;;
39918;SDS011;25589;51.552;13.424;2024-03-08T08:59:12;48.72;;;26.15;;
39918;SDS011;25589;51.552;13.424;2024-03-08T09:01:44;44.67;;;24.55;;
39918;SDS011;25589;51.552;13.424;2024-03-08T09:04:12;39.95;;;21.45;;
39918;SDS011;25589;51.552;13.424;2024-03-08T09:06:39;44.78;;;23.95;;
39918;SDS011;25589;51.552;13.424;2024-03-08T09:09:08;42.08;;;24.48;;
39918;SDS011;25589;51.552;13.424;2024-03-08T09:11:35;42.88;;;25.50;;
39918;SDS011;25589;51.552;13.424;2024-03-08T09:14:03;45.38;;;24.20;;
39918;SDS011;25589;51.552;13.424;2024-03-08T09:16:30;40.67;;;23.00;;
39918;SDS011;25589;51.552;13.424;2024-03-08T09:18:56;47.88;;;22.67;;
39918;SDS011;25589;51.552;13.424;2024-03-08T09:21:22;41.20;;;23.38;;
39918;SDS011;25589;51.552;13.424;2024-03-08T09:23:47;45.72;;;23.10;;
39918;SDS011;25589;51.552;13.424;2024-03-08T09:26:13;44.95;;;24.27;;
39918;SDS011;25589;51.552;13.424;2024-03-08T09:28:40;43.92;;;22.77;;
39918;SDS011;25589;51.552;13.424;2024-03-08T09:31:06;40.67;;;22.90;;
39918;SDS011;25589;51.552;13.424;2024-03-08T09:33:31;39.63;;;22.25;;
39918;SDS011;25589;51.552;13.424;2024-03-08T09:35:57;41.22;;;23.23;;
39918;SDS011;25589;51.552;13.424;2024-03-08T09:38:23;40.00;;;22.60;;
39918;SDS011;25589;51.552;13.424;2024-03-08T09:40:50;43.50;;;22.80;;
39918;SDS011;25589;51.552;13.424;2024-03-08T09:43:16;40.13;;;21.75;;
39918;SDS011;25589;51.552;13.424;2024-03-08T09:45:43;45.22;;;21.38;;
39918;SDS011;25589;51.552;13.424;2024-03-08T09:48:11;43.40;;;20.95;;
39918;SDS011;25589;51.552;13.424;2024-03-08T09:50:39;34.50;;;20.55;;
39918;SDS011;25589;51.552;13.424;2024-03-08T09:53:07;31.42;;;17.98;;
39918;SDS011;25589;51.552;13.424;2024-03-08T09:55:37;35.22;;;19.05;;
39918;SDS011;25589;51.552;13.424;2024-03-08T09:58:08;37.25;;;19.90;;
39918;SDS011;25589;51.552;13.424;2024-03-08T10:00:55;32.78;;;18.15;;
39918;SDS011;25589;51.552;13.424;2024-03-08T10:03:27;27.50;;;17.03;;
39918;SDS011;25589;51.552;13.424;2024-03-08T10:05:56;28.25;;;16.55;;
39918;SDS011;25589;51.552;13.424;2024-03-08T10:08:26;29.13;;;16.70;;
39918;SDS011;25589;51.552;13.424;2024-03-08T10:10:54;28.38;;;17.13;;
39918;SDS011;25589;51.552;13.424;2024-03-08T10:13:21;32.58;;;17.73;;
39918;SDS011;25589;51.552;13.424;2024-03-08T10:15:47;27.58;;;17.27;;
39918;SDS011;25589;51.552;13.424;2024-03-08T10:18:13;32.08;;;18.70;;
39918;SDS011;25589;51.552;13.424;2024-03-08T10:20:39;30.70;;;18.50;;
39918;SDS011;25589;51.552;13.424;2024-03-08T10:23:06;28.42;;;16.95;;
39918;SDS011;25589;51.552;13.424;2024-03-08T10:25:32;26.73;;;15.90;;
39918;SDS011;25589;51.552;13.424;2024-03-08T10:27:58;25.40;;;16.45;;
39918;SDS011;25589;51.552;13.424;2024-03-08T10:30:24;25.90;;;14.75;;
39918;SDS011;25589;51.552;13.424;2024-03-08T10:32:50;26.10;;;14.57;;
39918;SDS011;25589;51.552;13.424;2024-03-08T10:35:16;24.48;;;14.85;;
39918;SDS011;25589;51.552;13.424;2024-03-08T10:40:22;29.20;;;16.20;;
39918;SDS011;25589;51.552;13.424;2024-03-08T10:45:35;25.58;;;15.10;;
39918;SDS011;25589;51.552;13.424;2024-03-08T10:48:26;23.63;;;14.70;;
39918;SDS011;25589;51.552;13.424;2024-03-08T10:50:59;28.60;;;13.98;;
39918;SDS011;25589;51.552;13.424;2024-03-08T10:53:27;22.70;;;14.10;;
39918;SDS011;25589;51.552;13.424;2024-03-08T10:55:57;21.48;;;14.35;;
39918;SDS011;25589;51.552;13.424;2024-03-08T10:58:24;22.50;;;13.27;;
39918;SDS011;25589;51.552;13.424;2024-03-08T11:00:54;21.00;;;12.82;;
39918;SDS011;25589;51.552;13.424;2024-03-08T11:06:05;19.10;;;12.00;;
39918;SDS011;25589;51.552;13.424;2024-03-08T11:08:54;19.58;;;11.50;;
39918;SDS011;25589;51.552;13.424;2024-03-08T11:11:24;19.17;;;12.05;;
39918;SDS011;25589;51.552;13.424;2024-03-08T11:13:57;15.57;;;10.95;;
39918;SDS011;25589;51.552;13.424;2024-03-08T11:18:59;19.83;;;11.45;;
39918;SDS011;25589;51.552;13.424;2024-03-08T11:21:33;18.60;;;11.40;;
39918;SDS011;25589;51.552;13.424;2024-03-08T11:24:02;17.67;;;11.18;;
39918;SDS011;25589;51.552;13.424;2024-03-08T11:26:32;21.70;;;11.75;;
39918;SDS011;25589;51.552;13.424;2024-03-08T11:32:16;17.00;;;10.60;;
39918;SDS011;25589;51.552;13.424;2024-03-08T11:34:46;16.70;;;10.70;;
39918;SDS011;25589;51.552;13.424;2024-03-08T11:37:17;16.77;;;10.23;;
39918;SDS011;25589;51.552;13.424;2024-03-08T11:39:47;19.15;;;10.90;;
39918;SDS011;25589;51.552;13.424;2024-03-08T11:42:14;18.17;;;10.75;;
39918;SDS011;25589;51.552;13.424;2024-03-08T11:44:45;14.18;;;9.13;;
39918;SDS011;25589;51.552;13.424;2024-03-08T11:47:11;20.42;;;14.85;;
39918;SDS011;25589;51.552;13.424;2024-03-08T11:49:38;16.70;;;11.57;;
39918;SDS011;25589;51.552;13.424;2024-03-08T11:52:16;16.35;;;9.60;;
39918;SDS011;25589;51.552;13.424;2024-03-08T11:54:47;15.45;;;8.48;;
39918;SDS011;25589;51.552;13.424;2024-03-08T11:57:19;16.52;;;9.20;;
39918;SDS011;25589;51.552;13.424;2024-03-08T11:59:51;18.30;;;10.05;;
39918;SDS011;25589;51.552;13.424;2024-03-08T12:02:26;16.92;;;10.15;;
39918;SDS011;25589;51.552;13.424;2024-03-08T12:04:59;12.52;;;8.57;;
39918;SDS011;25589;51.552;13.424;2024-03-08T12:07:28;13.07;;;7.93;;
39918;SDS011;25589;51.552;13.424;2024-03-08T12:12:51;11.30;;;7.38;;
39918;SDS011;25589;51.552;13.424;2024-03-08T12:15:22;13.43;;;8.02;;
39918;SDS011;25589;51.552;13.424;2024-03-08T12:17:52;13.38;;;7.93;;
39918;SDS011;25589;51.552;13.424;2024-03-08T12:20:20;12.30;;;7.95;;
39918;SDS011;25589;51.552;13.424;2024-03-08T12:22:48;15.65;;;8.13;;
39918;SDS011;25589;51.552;13.424;2024-03-08T12:25:15;13.02;;;7.93;;
39918;SDS011;25589;51.552;13.424;2024-03-08T12:27:42;11.02;;;7.13;;
39918;SDS011;25589;51.552;13.424;2024-03-08T12:32:47;10.27;;;6.50;;
39918;SDS011;25589;51.552;13.424;2024-03-08T12:35:18;10.93;;;7.45;;
39918;SDS011;25589;51.552;13.424;2024-03-08T12:37:47;15.93;;;7.03;;
39918;SDS011;25589;51.552;13.424;2024-03-08T12:40:18;9.43;;;6.18;;
39918;SDS011;25589;51.552;13.424;2024-03-08T12:42:45;10.38;;;7.53;;
39918;SDS011;25589;51.552;13.424;2024-03-08T12:45:14;14.50;;;7.10;;
39918;SDS011;25589;51.552;13.424;2024-03-08T12:47:40;10.00;;;6.65;;
39918;SDS011;25589;51.552;13.424;2024-03-08T12:50:07;13.40;;;6.72;;
39918;SDS011;25589;51.552;13.424;2024-03-08T12:52:34;10.52;;;6.72;;
39918;SDS011;25589;51.552;13.424;2024-03-08T12:55:02;9.45;;;6.15;;
39918;SDS011;25589;51.552;13.424;2024-03-08T12:57:32;9.95;;;6.45;;
39918;SDS011;25589;51.552;13.424;2024-03-08T12:59:59;10.60;;;6.65;;
39918;SDS011;25589;51.552;13.424;2024-03-08T13:02:26;8.57;;;6.18;;
39918;SDS011;25589;51.552;13.424;2024-03-08T13:04:52;10.35;;;6.53;;
39918;SDS011;25589;51.552;13.424;2024-03-08T13:07:22;9.90;;;6.57;;
39918;SDS011;25589;51.552;13.424;2024-03-08T13:09:54;9.75;;;6.30;;
39918;SDS011;25589;51.552;13.424;2024-03-08T13:12:23;11.65;;;7.05;;
39918;SDS011;25589;51.552;13.424;2024-03-08T13:14:49;16.63;;;9.48;;
39918;SDS011;25589;51.552;13.424;2024-03-08T13:17:15;10.73;;;6.82;;
39918;SDS011;25589;51.552;13.424;2024-03-08T13:19:41;12.45;;;8.07;;
39918;SDS011;25589;51.552;13.424;2024-03-08T13:22:08;11.30;;;7.82;;
39918;SDS011;25589;51.552;13.424;2024-03-08T13:24:42;12.05;;;7.57;;
39918;SDS011;25589;51.552;13.424;2024-03-08T13:27:10;15.90;;;6.88;;
39918;SDS011;25589;51.552;13.424;2024-03-08T13:29:48;9.73;;;6.80;;
39918;SDS011;25589;51.552;13.424;2024-03-08T13:32:14;9.75;;;6.90;;
39918;SDS011;25589;51.552;13.424;2024-03-08T13:34:41;9.93;;;7.15;;
39918;SDS011;25589;51.552;13.424;2024-03-08T13:37:07;10.70;;;7.38;;
39918;SDS011;25589;51.552;13.424;2024-03-08T13:39:35;14.27;;;7.28;;
39918;SDS011;25589;51.552;13.424;2024-03-08T13:42:15;9.80;;;6.25;;
39918;SDS011;25589;51.552;13.424;2024-03-08T13:44:45;13.30;;;6.80;;
39918;SDS011;25589;51.552;13.424;2024-03-08T13:47:12;14.93;;;8.02;;
39918;SDS011;25589;51.552;13.424;2024-03-08T13:49:42;22.10;;;10.98;;
39918;SDS011;25589;51.552;13.424;2024-03-08T13:52:09;10.25;;;7.40;;
39918;SDS011;25589;51.552;13.424;2024-03-08T13:54:35;12.13;;;6.82;;
39918;SDS011;25589;51.552;13.424;2024-03-08T13:57:02;11.77;;;7.97;;
39918;SDS011;25589;51.552;13.424;2024-03-08T13:59:33;13.50;;;8.30;;
39918;SDS011;25589;51.552;13.424;2024-03-08T14:02:00;11.88;;;7.60;;
39918;SDS011;25589;51.552;13.424;2024-03-08T14:04:27;11.98;;;7.38;;
39918;SDS011;25589;51.552;13.424;2024-03-08T14:06:54;11.77;;;7.38;;
39918;SDS011;25589;51.552;13.424;2024-03-08T14:09:25;15.13;;;8.52;;
39918;SDS011;25589;51.552;13.424;2024-03-08T14:11:51;9.13;;;6.75;;
39918;SDS011;25589;51.552;13.424;2024-03-08T14:14:19;17.42;;;8.57;;
39918;SDS011;25589;51.552;13.424;2024-03-08T14:16:46;16.52;;;9.35;;
39918;SDS011;25589;51.552;13.424;2024-03-08T14:19:14;11.25;;;7.60;;
39918;SDS011;25589;51.552;13.424;2024-03-08T14:21:40;12.13;;;7.57;;
39918;SDS011;25589;51.552;13.424;2024-03-08T14:24:07;11.43;;;7.38;;
39918;SDS011;25589;51.552;13.424;2024-03-08T14:26:33;13.48;;;8.77;;
39918;SDS011;25589;51.552;13.424;2024-03-08T14:28:59;14.63;;;8.20;;
39918;SDS011;25589;51.552;13.424;2024-03-08T14:31:25;12.68;;;9.13;;